Time;durP1;ratioP1;P1;durP2;ratioP2;P2;SDS_P1;SDS_P2;PMS_P1;PMS_P2;Temp;Humidity;BMP_temperature;BMP_pressure;BME280_temperature;BME280_humidity;BME280_pressure;Samples;Min_cycle;Max_cycle;Signal;HPM_P1;HPM_P2
2022/03/10 00:02:07;;;;;;;21.25;12.68;;;;;;;;;;5034159;28;20179;-78
2022/03/10 00:04:36;;;;;;;20.80;11.95;;;;;;;;;;5016507;28;20068;-78
2022/03/10 00:07:02;;;;;;;19.88;12.38;;;;;;;;;;5031296;28;20039;-78
2022/03/10 00:09:29;;;;;;;22.30;12.90;;;;;;;;;;5032508;28;20465;-77
2022/03/10 00:11:55;;;;;;;19.58;11.98;;;;;;;;;;5033659;28;20129;-77
2022/03/10 00:14:21;;;;;;;20.75;11.63;;;;;;;;;;5031498;28;20037;-78
2022/03/10 00:16:47;;;;;;;21.70;12.40;;;;;;;;;;5032016;28;20095;-78
2022/03/10 00:19:14;;;;;;;21.17;11.77;;;;;;;;;;5032846;28;20041;-78
2022/03/10 00:21:40;;;;;;;19.15;11.13;;;;;;;;;;5031344;28;20103;-78
2022/03/10 00:24:06;;;;;;;18.05;11.57;;;;;;;;;;5032669;28;20068;-78
2022/03/10 00:26:32;;;;;;;17.05;10.40;;;;;;;;;;5033578;28;20037;-78
2022/03/10 00:28:58;;;;;;;18.88;10.05;;;;;;;;;;5031180;28;20148;-78
2022/03/10 00:31:24;;;;;;;18.80;10.93;;;;;;;;;;5031939;28;20048;-78
2022/03/10 00:33:51;;;;;;;17.00;10.43;;;;;;;;;;5031929;28;20037;-78
2022/03/10 00:36:17;;;;;;;18.00;9.93;;;;;;;;;;5032260;28;20445;-78
2022/03/10 00:38:43;;;;;;;19.42;11.68;;;;;;;;;;5031748;28;20053;-78
2022/03/10 00:41:09;;;;;;;17.98;10.70;;;;;;;;;;5044582;28;20056;-78
2022/03/10 00:43:36;;;;;;;16.83;10.55;;;;;;;;;;5034437;28;20087;-78
2022/03/10 00:46:02;;;;;;;16.55;11.30;;;;;;;;;;5052779;28;20175;-77
2022/03/10 00:48:28;;;;;;;15.57;9.68;;;;;;;;;;5034159;28;20080;-77
2022/03/10 00:50:54;;;;;;;18.60;10.90;;;;;;;;;;5034898;28;20040;-78
2022/03/10 00:53:20;;;;;;;15.70;10.48;;;;;;;;;;5034592;28;20048;-78
2022/03/10 00:55:46;;;;;;;22.33;11.60;;;;;;;;;;5051870;28;20501;-78
2022/03/10 00:58:13;;;;;;;17.38;10.23;;;;;;;;;;5034847;28;20040;-78
2022/03/10 01:00:39;;;;;;;20.35;10.40;;;;;;;;;;5052733;28;20043;-78
2022/03/10 01:03:08;;;;;;;18.55;10.95;;;;;;;;;;5034172;28;20489;-78
2022/03/10 01:05:34;;;;;;;17.52;10.80;;;;;;;;;;5034730;28;20048;-78
2022/03/10 01:08:00;;;;;;;18.80;9.98;;;;;;;;;;5052339;28;20060;-78
2022/03/10 01:10:26;;;;;;;17.83;9.68;;;;;;;;;;5034007;28;20041;-78
2022/03/10 01:12:53;;;;;;;17.10;9.68;;;;;;;;;;5034841;28;20174;-77
2022/03/10 01:15:23;;;;;;;16.52;9.65;;;;;;;;;;5034539;28;20041;-78
2022/03/10 01:17:49;;;;;;;16.95;10.40;;;;;;;;;;5033814;28;20059;-78
2022/03/10 01:20:17;;;;;;;14.98;9.73;;;;;;;;;;5034407;28;20102;-78
2022/03/10 01:22:43;;;;;;;17.00;9.82;;;;;;;;;;5034132;28;20486;-77
2022/03/10 01:25:09;;;;;;;15.60;9.40;;;;;;;;;;5033635;28;20073;-77
2022/03/10 01:27:35;;;;;;;16.33;9.55;;;;;;;;;;5052616;28;20049;-77
2022/03/10 01:30:01;;;;;;;14.88;9.00;;;;;;;;;;5034430;28;20389;-77
2022/03/10 01:32:28;;;;;;;17.88;8.95;;;;;;;;;;5016954;28;20051;-77
2022/03/10 01:34:54;;;;;;;16.02;8.82;;;;;;;;;;5033785;28;20522;-77
2022/03/10 01:37:20;;;;;;;16.42;9.05;;;;;;;;;;5034124;28;20587;-78
2022/03/10 01:39:46;;;;;;;16.02;9.85;;;;;;;;;;5033277;28;20072;-77
2022/03/10 01:42:13;;;;;;;15.05;8.88;;;;;;;;;;5034493;28;20045;-77
2022/03/10 01:44:40;;;;;;;15.85;9.63;;;;;;;;;;5033768;28;20405;-77
2022/03/10 01:47:06;;;;;;;14.57;9.20;;;;;;;;;;5034315;28;20401;-77
2022/03/10 01:49:32;;;;;;;15.27;10.13;;;;;;;;;;5034642;28;20045;-77
2022/03/10 01:51:59;;;;;;;15.40;9.77;;;;;;;;;;5051247;28;20076;-77
2022/03/10 01:54:25;;;;;;;16.42;9.57;;;;;;;;;;5034346;28;20056;-77
2022/03/10 01:56:51;;;;;;;18.60;9.90;;;;;;;;;;5034041;28;20039;-77
2022/03/10 01:59:18;;;;;;;17.67;9.88;;;;;;;;;;5032894;28;20041;-77
2022/03/10 02:01:44;;;;;;;14.93;9.27;;;;;;;;;;5033643;28;20045;-77
2022/03/10 02:04:10;;;;;;;17.45;9.90;;;;;;;;;;5051546;28;20045;-77
2022/03/10 02:06:37;;;;;;;14.95;8.55;;;;;;;;;;5033463;28;20069;-77
2022/03/10 02:11:48;;;;;;;13.65;8.98;;;;;;;;;;5033716;28;20140;-77
2022/03/10 02:19:43;;;;;;;15.43;9.38;;;1.70;99.90;;;;;;5033907;28;20060;-76
2022/03/10 02:22:14;;;;;;;17.15;10.55;;;2.20;99.90;;;;;;5032910;28;20045;-77
2022/03/10 02:24:41;;;;;;;16.42;9.80;;;1.70;99.90;;;;;;5051672;28;20071;-76
2022/03/10 02:27:23;;;;;;;19.38;11.25;;;2.00;99.90;;;;;;5032999;28;20049;-77
2022/03/10 02:29:52;;;;;;;15.65;9.10;;;1.60;99.90;;;;;;5017414;28;20087;-76
2022/03/10 02:32:19;;;;;;;19.13;9.68;;;1.60;99.90;;;;;;5051464;28;20036;-76
2022/03/10 02:34:45;;;;;;;16.20;9.73;;;1.50;99.90;;;;;;5050440;28;20051;-76
2022/03/10 02:37:11;;;;;;;15.82;10.27;;;1.90;99.90;;;;;;5033745;28;20111;-77
2022/03/10 02:39:38;;;;;;;15.48;10.13;;;1.60;99.90;;;;;;5033695;28;20044;-76
2022/03/10 02:42:05;;;;;;;18.67;10.82;;;1.70;99.90;;;;;;5032619;28;20061;-76
2022/03/10 02:44:32;;;;;;;16.08;9.60;;;1.50;99.90;;;;;;5037277;28;20072;-76
2022/03/10 02:46:57;;;;;;;17.38;10.15;;;1.60;99.90;;;;;;5037108;28;20077;-76
2022/03/10 02:49:24;;;;;;;20.52;10.82;;;1.70;99.90;;;;;;5036181;28;20045;-76
2022/03/10 02:51:50;;;;;;;16.08;9.52;;;1.30;99.90;;;;;;5037365;28;20462;-76
2022/03/10 02:54:16;;;;;;;16.92;10.20;;;1.20;99.90;;;;;;5055024;28;20441;-76
2022/03/10 02:56:42;;;;;;;18.98;10.70;;;1.50;99.90;;;;;;5036368;28;20041;-76
2022/03/10 02:59:09;;;;;;;17.30;10.23;;;1.50;99.90;;;;;;5036897;28;20045;-76
2022/03/10 03:01:35;;;;;;;15.85;10.98;;;;;;;;;;5037089;28;20059;-76
2022/03/10 03:04:01;;;;;;;19.38;9.43;;;;;;;;;;5036001;28;20044;-76
2022/03/10 03:06:27;;;;;;;14.38;9.25;;;1.30;99.90;;;;;;5054536;28;20040;-76
2022/03/10 03:08:52;;;;;;;18.42;10.07;;;1.20;99.90;;;;;;5036821;28;20103;-76
2022/03/10 03:11:18;;;;;;;16.85;10.15;;;1.00;99.90;;;;;;5036140;28;20028;-76
2022/03/10 03:13:43;;;;;;;19.10;10.23;;;1.00;99.90;;;;;;5054544;28;20037;-76
2022/03/10 03:16:09;;;;;;;17.70;10.63;;;;;;;;;;5035940;28;20040;-76
2022/03/10 03:18:35;;;;;;;18.05;10.07;;;1.30;99.90;;;;;;5054535;28;20037;-76
2022/03/10 03:21:01;;;;;;;16.40;10.02;;;1.30;99.90;;;;;;5036888;28;20064;-76
2022/03/10 03:23:27;;;;;;;16.77;9.93;;;1.30;99.90;;;;;;5035914;28;20076;-76
2022/03/10 03:25:53;;;;;;;15.73;9.70;;;;;;;;;;5054471;28;20524;-77
2022/03/10 03:28:22;;;;;;;16.60;9.70;;;1.50;99.90;;;;;;5054371;28;20183;-76
2022/03/10 03:30:49;;;;;;;16.75;9.82;;;1.60;99.90;;;;;;5035780;28;20082;-75
2022/03/10 03:33:15;;;;;;;17.35;9.32;;;1.60;99.90;;;;;;5036243;28;20045;-76
2022/03/10 03:35:43;;;;;;;17.88;10.38;;;1.10;99.90;;;;;;5036438;28;20041;-76
2022/03/10 03:38:11;;;;;;;19.15;10.27;;;0.90;99.90;;;;;;5035127;28;20053;-76
2022/03/10 03:40:37;;;;;;;18.85;9.73;;;1.50;99.90;;;;;;5036082;28;20421;-75
2022/03/10 03:43:03;;;;;;;16.52;10.25;;;;;;;;;;5036205;28;20048;-75
2022/03/10 03:45:29;;;;;;;15.40;9.48;;;1.20;99.90;;;;;;5019003;28;20087;-75
2022/03/10 03:47:55;;;;;;;20.58;10.85;;;;;;;;;;5036406;28;20437;-75
2022/03/10 03:50:21;;;;;;;16.63;10.45;;;;;;;;;;5036057;28;20044;-75
2022/03/10 03:52:47;;;;;;;15.93;9.68;;;1.00;99.90;;;;;;5035219;28;20044;-75
2022/03/10 03:55:13;;;;;;;20.98;10.45;;;1.30;99.90;;;;;;5053621;28;20415;-75
2022/03/10 03:57:39;;;;;;;14.57;9.48;;;;;;;;;;5036494;28;20114;-75
2022/03/10 04:00:07;;;;;;;17.70;10.52;;;1.40;99.90;;;;;;5035312;28;20052;-75
2022/03/10 04:02:33;;;;;;;17.50;10.07;;;;;;;;;;5053541;28;20039;-75
2022/03/10 04:04:59;;;;;;;20.55;10.02;;;1.60;99.90;;;;;;5035622;28;20040;-75
2022/03/10 04:07:25;;;;;;;19.70;11.10;;;;;;;;;;5034873;28;20112;-75
2022/03/10 04:09:50;;;;;;;15.43;9.98;;;1.30;99.90;;;;;;5035406;28;20047;-75
2022/03/10 04:12:16;;;;;;;21.02;11.05;;;;;;;;;;5035758;28;20036;-75
2022/03/10 04:14:42;;;;;;;17.67;11.50;;;1.40;99.90;;;;;;5035228;28;20045;-75
2022/03/10 04:17:08;;;;;;;16.90;9.75;;;1.60;99.90;;;;;;5035169;28;20036;-75
2022/03/10 04:19:34;;;;;;;19.15;10.18;;;;;;;;;;5035178;28;20088;-75
2022/03/10 04:22:00;;;;;;;20.02;11.77;;;;;;;;;;5035487;28;20508;-74
2022/03/10 04:24:26;;;;;;;15.35;9.60;;;1.70;99.90;;;;;;5035594;28;20047;-75
2022/03/10 04:26:52;;;;;;;16.63;10.05;;;2.50;99.90;;;;;;5052124;28;20029;-74
2022/03/10 04:29:18;;;;;;;16.30;10.40;;;1.70;99.90;;;;;;5052792;28;20508;-75
2022/03/10 04:31:43;;;;;;;21.65;11.45;;;1.90;99.90;;;;;;5053006;28;20036;-75
2022/03/10 04:34:10;;;;;;;17.38;9.15;;;;;;;;;;5034490;28;20051;-75
2022/03/10 04:36:36;;;;;;;16.58;10.20;;;;;;;;;;5035487;28;20037;-74
2022/03/10 04:39:02;;;;;;;17.17;9.85;;;1.80;99.90;;;;;;5035097;28;20041;-75
2022/03/10 04:41:28;;;;;;;17.63;10.70;;;;;;;;;;5052062;28;20402;-74
2022/03/10 04:43:55;;;;;;;19.27;10.25;;;;;;;;;;5034964;28;20466;-74
2022/03/10 04:46:21;;;;;;;19.92;10.90;;;;;;;;;;5052810;28;20098;-75
2022/03/10 04:48:46;;;;;;;17.65;10.70;;;;;;;;;;5017875;28;20044;-75
2022/03/10 04:51:12;;;;;;;17.02;10.88;;;;;;;;;;5034969;28;20045;-75
2022/03/10 04:53:38;;;;;;;21.25;10.82;;;1.70;99.90;;;;;;5053024;28;20454;-75
2022/03/10 04:56:04;;;;;;;20.92;10.52;;;1.80;99.90;;;;;;5034008;28;20048;-75
2022/03/10 04:58:30;;;;;;;18.95;10.15;;;;;;;;;;5052362;28;20051;-75
2022/03/10 05:00:56;;;;;;;17.70;10.30;;;1.40;99.90;;;;;;5052507;28;20052;-75
2022/03/10 05:03:22;;;;;;;18.02;11.07;;;;;;;;;;5033783;28;20474;-74
2022/03/10 05:05:48;;;;;;;19.02;10.45;;;;;;;;;;5034123;28;20047;-75
2022/03/10 05:08:14;;;;;;;18.52;10.93;;;;;;;;;;5034668;28;20394;-75
2022/03/10 05:10:40;;;;;;;17.80;10.38;;;;;;;;;;5033768;28;20501;-75
2022/03/10 05:13:06;;;;;;;18.02;10.38;;;;;;;;;;5035181;28;20040;-75
2022/03/10 05:15:32;;;;;;;17.13;10.32;;;;;;;;;;5034937;28;20116;-74
2022/03/10 05:17:59;;;;;;;19.52;10.95;;;1.50;99.90;;;;;;5033469;28;20049;-75
2022/03/10 05:20:25;;;;;;;17.67;9.73;;;;;;;;;;5052418;28;20045;-75
2022/03/10 05:22:56;;;;;;;21.42;10.82;;;1.60;99.90;;;;;;5033390;28;20044;-75
2022/03/10 05:25:30;;;;;;;21.15;11.32;;;1.50;99.90;;;;;;5034327;28;20037;-75
2022/03/10 05:27:56;;;;;;;18.80;10.77;;;;;;;;;;5034057;28;20378;-75
2022/03/10 05:30:22;;;;;;;18.33;10.35;;;;;;;;;;5033160;28;20477;-75
2022/03/10 05:32:48;;;;;;;19.02;11.30;;;;;;;;;;5051933;28;20045;-75
2022/03/10 05:35:15;;;;;;;18.85;11.35;;;;;;;;;;5051835;28;20521;-75
2022/03/10 05:37:42;;;;;;;19.52;11.20;;;1.40;99.90;;;;;;5050873;28;20098;-75
2022/03/10 05:40:10;;;;;;;22.10;11.80;;;1.50;99.90;;;;;;5034100;28;20052;-75
2022/03/10 05:42:41;;;;;;;18.27;11.18;;;;;;;;;;5034515;28;20045;-75
2022/03/10 05:45:08;;;;;;;17.52;10.77;;;;;;;;;;5016919;28;20504;-75
2022/03/10 05:47:35;;;;;;;17.05;10.30;;;;;;;;;;5052201;28;20037;-75
2022/03/10 05:50:01;;;;;;;20.77;10.38;;;;;;;;;;5051883;28;20059;-75
2022/03/10 05:52:27;;;;;;;19.35;10.63;;;;;;;;;;5016528;28;20049;-75
2022/03/10 05:54:53;;;;;;;21.50;11.85;;;;;;;;;;5034027;28;20048;-75
2022/03/10 05:57:19;;;;;;;23.63;10.98;;;;;;;;;;5051429;28;20041;-75
2022/03/10 05:59:45;;;;;;;18.27;11.45;;;;;;;;;;5033110;28;20048;-75
2022/03/10 06:02:11;;;;;;;23.60;9.63;;;;;;;;;;5033968;28;20052;-75
2022/03/10 06:04:37;;;;;;;18.90;11.30;;;;;;;;;;5018044;28;20044;-75
2022/03/10 06:07:03;;;;;;;18.40;10.82;;;;;;;;;;5050735;28;20040;-75
2022/03/10 06:09:29;;;;;;;18.25;10.20;;;;;;;;;;5033872;28;20060;-75
2022/03/10 06:11:55;;;;;;;19.70;11.02;;;;;;;;;;5032837;28;20053;-75
2022/03/10 06:14:21;;;;;;;17.38;10.77;;;;;;;;;;5033751;28;20049;-75
2022/03/10 06:16:47;;;;;;;16.95;10.40;;;;;;;;;;5033880;28;20429;-75
2022/03/10 06:19:14;;;;;;;18.13;10.98;;;;;;;;;;5053946;28;20545;-75
2022/03/10 06:21:41;;;;;;;17.60;11.80;;;;;;;;;;5055518;28;20036;-75
2022/03/10 06:24:08;;;;;;;20.30;11.60;;;;;;;;;;5055548;28;20052;-75
2022/03/10 06:26:36;;;;;;;22.80;11.90;;;;;;;;;;5037135;28;20041;-75
2022/03/10 06:29:04;;;;;;;21.88;11.13;;;;;;;;;;5037352;28;20078;-75
2022/03/10 06:31:30;;;;;;;21.17;11.68;;;1.50;99.90;;;;;;5037763;28;20048;-75
2022/03/10 06:33:57;;;;;;;19.23;11.65;;;;;;;;;;5054553;28;20041;-75
2022/03/10 06:36:23;;;;;;;20.15;11.07;;;;;;;;;;5020920;28;20051;-74
2022/03/10 06:38:49;;;;;;;18.35;10.50;;;;;;;;;;5055205;28;20456;-75
2022/03/10 06:41:15;;;;;;;21.67;12.45;;;;;;;;;;5054332;28;20140;-75
2022/03/10 06:43:41;;;;;;;20.00;11.25;;;;;;;;;;5037235;28;20564;-74
2022/03/10 06:46:07;;;;;;;18.27;10.32;;;;;;;;;;5037321;28;20079;-75
2022/03/10 06:48:34;;;;;;;19.25;10.68;;;;;;;;;;5054653;28;20458;-75
2022/03/10 06:51:00;;;;;;;18.90;9.90;;;;;;;;;;5037233;28;20061;-75
2022/03/10 06:53:26;;;;;;;18.40;11.00;;;;;;;;;;5054930;28;20124;-75
2022/03/10 06:55:52;;;;;;;18.13;10.32;;;;;;;;;;5036564;28;20036;-75
2022/03/10 06:58:19;;;;;;;19.98;9.88;;;;;;;;;;5054752;28;20079;-75
2022/03/10 07:00:45;;;;;;;20.75;11.18;;;;;;;;;;5054959;28;20041;-74
2022/03/10 07:03:11;;;;;;;20.42;11.18;;;;;;;;;;5054071;28;20040;-74
2022/03/10 07:05:37;;;;;;;24.20;10.57;;;;;;;;;;5054920;28;20041;-74
2022/03/10 07:08:03;;;;;;;17.27;10.98;;;;;;;;;;5036976;28;20370;-74
2022/03/10 07:10:29;;;;;;;22.73;12.80;;;2.30;99.90;;;;;;5036273;28;20053;-74
2022/03/10 07:12:55;;;;;;;17.83;11.05;;;;;;;;;;5037062;28;20076;-75
2022/03/10 07:15:22;;;;;;;20.98;11.43;;;;;;;;;;5050827;28;20532;-74
2022/03/10 07:17:48;;;;;;;18.38;11.10;;;;;;;;;;5033584;28;20052;-74
2022/03/10 07:20:14;;;;;;;19.20;11.20;;;;;;;;;;5033124;28;20041;-74
2022/03/10 07:22:41;;;;;;;16.60;9.70;;;;;;;;;;5050043;28;20378;-74
2022/03/10 07:25:10;;;;;;;20.85;11.65;;;;;;;;;;5032852;28;20029;-73
2022/03/10 07:27:36;;;;;;;20.17;11.02;;;;;;;;;;5033508;28;20044;-74
2022/03/10 07:30:03;;;;;;;23.17;11.98;;;3.00;99.90;;;;;;5050589;28;20736;-75
2022/03/10 07:32:29;;;;;;;17.58;10.63;;;;;;;;;;5049065;28;20500;-76
2022/03/10 07:34:55;;;;;;;18.08;10.15;;;;;;;;;;5038952;28;20043;-75
2022/03/10 07:37:22;;;;;;;18.75;11.25;;;;;;;;;;5071238;28;20041;-74
2022/03/10 07:39:48;;;;;;;18.85;12.20;;;;;;;;;;5052166;28;20098;-72
2022/03/10 07:42:15;;;;;;;19.63;11.88;;;;;;;;;;5066651;28;20045;-73
2022/03/10 07:44:41;;;;;;;18.98;11.10;;;;;;;;;;5016384;28;20693;-74
2022/03/10 07:47:07;;;;;;;17.45;10.65;;;;;;;;;;5051405;28;20480;-72
2022/03/10 07:49:33;;;;;;;19.38;10.57;;;;;;;;;;5033200;28;20049;-71
2022/03/10 07:52:00;;;;;;;21.67;11.82;;;;;;;;;;5057167;28;20048;-73
2022/03/10 07:54:26;;;;;;;20.38;11.25;;;;;;;;;;5051662;28;20114;-73
2022/03/10 07:56:52;;;;;;;20.17;11.98;;;;;;;;;;5051641;28;20481;-73
2022/03/10 07:59:18;;;;;;;20.73;11.65;;;;;;;;;;5050644;28;20060;-73
2022/03/10 08:01:44;;;;;;;20.73;11.43;;;;;;;;;;5033185;28;20091;-73
2022/03/10 08:04:10;;;;;;;18.38;11.93;;;;;;;;;;5033443;28;20044;-72
2022/03/10 08:06:36;;;;;;;21.55;11.10;;;;;;;;;;5032542;28;20051;-73
2022/03/10 08:09:06;;;;;;;20.75;12.13;;;;;;;;;;5033253;28;20048;-73
2022/03/10 08:11:31;;;;;;;21.90;11.73;;;;;;;;;;5043705;28;20540;-73
2022/03/10 08:13:57;;;;;;;22.88;12.50;;;;;;;;;;5050137;28;20107;-71
2022/03/10 08:16:23;;;;;;;20.55;11.45;;;;;;;;;;5052200;28;20040;-73
2022/03/10 08:18:50;;;;;;;21.38;10.85;;;;;;;;;;5037251;28;20148;-74
2022/03/10 08:21:16;;;;;;;18.23;11.52;;;;;;;;;;5050706;28;20351;-74
2022/03/10 08:23:42;;;;;;;19.40;11.43;;;;;;;;;;5015692;28;20401;-73
2022/03/10 08:26:09;;;;;;;19.48;12.88;;;;;;;;;;5032092;28;20076;-73
2022/03/10 08:28:36;;;;;;;22.58;11.95;;;;;;;;;;5050591;28;20040;-73
2022/03/10 08:31:04;;;;;;;20.83;11.43;;;;;;;;;;5050552;28;20467;-74
2022/03/10 08:33:30;;;;;;;18.83;12.15;;;;;;;;;;5043868;28;20048;-73
2022/03/10 08:35:56;;;;;;;23.52;13.20;;;;;;;;;;5026813;28;20115;-73
2022/03/10 08:38:22;;;;;;;30.20;16.77;;;;;;;;;;5030850;28;20502;-74
2022/03/10 08:40:48;;;;;;;26.50;14.38;;;;;;;;;;5015172;28;20057;-74
2022/03/10 08:43:15;;;;;;;23.10;12.57;;;;;;;;;;5049055;28;20137;-74
2022/03/10 08:45:42;;;;;;;18.77;10.82;;;;;;;;;;5049922;28;20073;-73
2022/03/10 08:48:08;;;;;;;20.65;11.65;;;;;;;;;;5030836;28;20045;-74
2022/03/10 08:50:34;;;;;;;21.70;12.15;;;;;;;;;;5032233;28;20053;-74
2022/03/10 08:53:00;;;;;;;19.50;11.43;;;;;;;;;;5050378;28;20123;-74
2022/03/10 08:55:27;;;;;;;20.08;12.05;;;;;;;;;;5030959;28;20045;-74
2022/03/10 08:57:55;;;;;;;24.88;12.23;;;;;;;;;;5031972;28;20086;-75
2022/03/10 09:00:21;;;;;;;18.63;11.82;;;;;;;;;;5031657;28;20083;-75
2022/03/10 09:02:47;;;;;;;24.80;13.23;;;;;;;;;;5049021;28;20556;-75
2022/03/10 09:05:13;;;;;;;19.48;12.13;;;;;;;;;;5031959;28;20037;-75
2022/03/10 09:07:40;;;;;;;21.52;12.45;;;;;;;;;;5032147;28;20045;-75
2022/03/10 09:10:07;;;;;;;20.05;11.35;;;;;;;;;;5049027;28;20037;-75
2022/03/10 09:12:33;;;;;;;19.83;12.00;;;;;;;;;;5048942;28;20040;-74
2022/03/10 09:14:59;;;;;;;21.58;12.13;;;;;;;;;;5030614;28;20029;-75
2022/03/10 09:17:25;;;;;;;20.08;11.73;;;;;;;;;;5050100;28;20813;-77
2022/03/10 09:19:51;;;;;;;19.00;13.25;;;;;;;;;;5016018;28;20090;-76
2022/03/10 09:22:17;;;;;;;22.77;12.77;;;;;;;;;;5048385;28;20074;-74
2022/03/10 09:24:44;;;;;;;20.88;11.93;;;7.70;99.90;;;;;;5014885;28;20116;-71
2022/03/10 09:27:10;;;;;;;23.77;12.23;;;;;;;;;;5031586;28;20048;-75
2022/03/10 09:29:36;;;;;;;25.10;13.77;;;;;;;;;;5049135;28;20576;-72
2022/03/10 09:32:02;;;;;;;21.13;12.23;;;;;;;;;;5014861;28;20057;-72
2022/03/10 09:34:28;;;;;;;18.88;12.13;;;;;;;;;;5049839;28;20069;-73
2022/03/10 09:36:54;;;;;;;21.27;12.88;;;;;;;;;;5031052;28;20085;-73
2022/03/10 09:39:21;;;;;;;23.33;12.75;;;;;;;;;;5049805;28;20546;-72
2022/03/10 09:41:47;;;;;;;27.52;14.07;;;;;;;;;;5047621;28;20053;-73
2022/03/10 09:44:20;;;;;;;24.90;13.60;;;8.60;99.90;;;;;;5048849;28;20460;-73
2022/03/10 09:46:49;;;;;;;20.23;13.48;;;;;;;;;;5049885;28;20382;-73
2022/03/10 09:49:15;;;;;;;22.25;13.80;;;;;;;;;;5031057;28;20049;-72
2022/03/10 09:51:42;;;;;;;20.40;12.48;;;8.90;99.90;;;;;;5042940;28;20687;-72
2022/03/10 09:54:08;;;;;;;24.02;14.25;;;;;;;;;;5047879;28;20079;-72
2022/03/10 09:56:36;;;;;;;25.98;13.95;;;11.30;95.90;;;;;;5049485;28;20073;-72
2022/03/10 09:59:06;;;;;;;24.77;14.57;;;9.20;95.70;;;;;;5048185;28;20098;-73
2022/03/10 10:01:32;;;;;;;30.15;15.63;;;;;;;;;;5031192;28;20048;-73
2022/03/10 10:03:59;;;;;;;24.95;15.00;;;;;;;;;;5031588;28;20072;-72
2022/03/10 10:06:24;;;;;;;21.90;13.85;;;9.60;99.90;;;;;;5025749;28;20037;-70
2022/03/10 10:08:55;;;;;;;21.77;14.55;;;9.50;99.90;;;;;;5032837;28;20135;-71
2022/03/10 10:11:33;;;;;;;22.95;15.38;;;9.90;99.90;;;;;;5040830;28;20040;-72
2022/03/10 10:13:59;;;;;;;25.15;14.50;;;10.00;94.60;;;;;;5048550;28;20396;-72
2022/03/10 10:16:25;;;;;;;24.15;15.55;;;10.10;96.40;;;;;;5031131;28;20087;-72
2022/03/10 10:18:56;;;;;;;20.83;13.25;;;10.10;99.90;;;;;;5030215;28;20546;-72
2022/03/10 10:21:23;;;;;;;23.15;13.82;;;9.90;99.90;;;;;;5030960;28;20063;-72
2022/03/10 10:23:51;;;;;;;22.88;14.68;;;10.40;94.00;;;;;;5030673;28;20116;-72
2022/03/10 10:26:18;;;;;;;22.60;14.02;;;;;;;;;;5025604;28;20087;-72
2022/03/10 10:28:49;;;;;;;22.98;14.23;;;10.60;99.90;;;;;;5019119;28;20053;-72
2022/03/10 10:31:22;;;;;;;23.08;13.93;;;10.60;98.20;;;;;;5047576;28;20450;-72
2022/03/10 10:33:58;;;;;;;31.17;15.52;;;10.60;99.00;;;;;;5046270;28;20124;-72
2022/03/10 10:36:30;;;;;;;25.60;16.80;;;10.50;99.90;;;;;;5013449;28;20048;-72
2022/03/10 10:39:17;;;;;;;22.10;14.15;;;11.40;97.80;;;;;;5030326;28;20053;-72
2022/03/10 10:41:45;;;;;;;27.77;15.10;;;10.50;99.90;;;;;;5027797;28;20061;-72
2022/03/10 10:44:25;;;;;;;25.58;14.65;;;;;;;;;;5026149;28;20083;-72
2022/03/10 10:46:58;;;;;;;23.63;14.90;;;10.60;96.00;;;;;;5029067;28;20498;-72
2022/03/10 10:49:24;;;;;;;22.70;14.93;;;;;;;;;;5030086;28;20048;-70
2022/03/10 10:51:52;;;;;;;23.33;14.13;;;11.10;91.30;;;;;;5026016;28;20056;-72
2022/03/10 10:54:24;;;;;;;22.88;15.52;;;;;;;;;;5023107;28;20111;-72
2022/03/10 10:56:55;;;;;;;25.30;14.80;;;11.10;99.90;;;;;;5020209;28;20045;-72
2022/03/10 10:59:34;;;;;;;24.23;15.15;;;11.10;91.50;;;;;;5030644;28;20446;-72
2022/03/10 11:02:11;;;;;;;24.58;14.93;;;;;;;;;;5029341;28;20045;-72
2022/03/10 11:04:41;;;;;;;25.98;15.93;;;11.60;99.90;;;;;;5033382;28;20055;-72
2022/03/10 11:07:11;;;;;;;25.08;14.65;;;;;;;;;;5034374;28;20041;-72
2022/03/10 11:09:39;;;;;;;23.85;15.02;;;12.30;99.90;;;;;;5052800;28;20052;-71
2022/03/10 11:12:05;;;;;;;22.45;13.85;;;;;;;;;;5051735;28;20037;-72
2022/03/10 11:14:32;;;;;;;23.27;14.98;;;;;;;;;;5032281;28;20055;-72
2022/03/10 11:16:58;;;;;;;26.67;15.75;;;11.90;81.00;;;;;;5050793;28;20044;-72
2022/03/10 11:19:26;;;;;;;22.08;15.63;;;11.70;99.90;;;;;;5051911;28;20044;-72
2022/03/10 11:22:16;;;;;;;39.75;16.60;;;11.90;82.40;;;;;;5050721;28;20048;-72
2022/03/10 11:25:17;;;;;;;22.90;14.45;;;12.20;78.30;;;;;;5039813;28;20060;-72
2022/03/10 11:27:49;;;;;;;24.08;15.27;;;12.20;99.90;;;;;;5053035;28;20048;-72
2022/03/10 11:30:16;;;;;;;21.60;15.07;;;12.40;99.90;;;;;;5048938;28;20080;-72
2022/03/10 11:32:42;;;;;;;24.98;15.73;;;;;;;;;;5052012;28;20371;-72
2022/03/10 11:35:15;;;;;;;24.45;15.50;;;12.50;99.10;;;;;;5033804;28;20458;-72
2022/03/10 11:37:42;;;;;;;20.40;13.77;;;;;;;;;;5032281;28;20041;-72
2022/03/10 11:40:14;;;;;;;26.50;16.27;;;12.30;99.90;;;;;;5031054;28;20061;-72
2022/03/10 11:42:40;;;;;;;22.88;15.43;;;10.00;76.40;;;;;;5037540;28;20051;-72
2022/03/10 11:45:19;;;;;;;25.60;16.65;;;12.80;99.60;;;;;;5039434;28;20086;-71
2022/03/10 11:47:47;;;;;;;20.42;14.63;;;12.60;79.70;;;;;;5049112;28;20112;-72
2022/03/10 11:50:24;;;;;;;21.05;14.32;;;13.00;99.90;;;;;;5025822;28;20036;-72
2022/03/10 11:53:19;;;;;;;26.00;15.25;;;12.70;75.80;;;;;;5034957;28;20069;-73
2022/03/10 11:55:52;;;;;;;25.95;16.45;;;12.70;97.60;;;;;;5035353;28;20470;-70
2022/03/10 11:58:20;;;;;;;23.65;14.52;;;12.90;97.00;;;;;;5028275;28;20402;-70
2022/03/10 12:00:51;;;;;;;24.27;16.08;;;12.90;90.50;;;;;;5024977;28;20052;-76
2022/03/10 12:03:20;;;;;;;24.67;16.58;;;12.80;97.10;;;;;;5052740;28;20037;-71
2022/03/10 12:05:55;;;;;;;24.38;14.95;;;13.00;97.40;;;;;;5017192;28;20106;-69
2022/03/10 12:08:23;;;;;;;25.38;17.58;;;12.90;92.70;;;;;;5040946;28;20029;-68
2022/03/10 12:10:49;;;;;;;25.67;15.93;;;13.00;97.50;;;;;;5034174;28;20086;-70
2022/03/10 12:13:21;;;;;;;26.15;16.67;;;12.80;99.70;;;;;;5034653;28;20033;-70
2022/03/10 12:15:47;;;;;;;23.63;14.32;;;13.10;99.70;;;;;;5053352;28;20044;-69
2022/03/10 12:18:15;;;;;;;25.83;16.00;;;13.30;78.40;;;;;;5017371;28;20049;-70
2022/03/10 12:20:43;;;;;;;23.63;16.45;;;13.30;87.00;;;;;;5035488;28;20041;-71
2022/03/10 12:23:15;;;;;;;27.98;16.45;;;13.30;77.90;;;;;;5049891;28;20037;-71
2022/03/10 12:25:46;;;;;;;25.60;17.05;;;13.20;77.50;;;;;;5032898;28;20119;-71
2022/03/10 12:28:24;;;;;;;26.23;16.17;;;13.30;81.40;;;;;;5026114;28;20068;-71
2022/03/10 12:31:11;;;;;;;26.40;17.20;;;13.20;69.30;;;;;;5035739;28;20071;-71
2022/03/10 12:33:55;;;;;;;25.02;16.10;;;13.10;75.90;;;;;;5034255;28;20051;-71
2022/03/10 12:36:37;;;;;;;23.20;15.13;;;12.80;97.10;;;;;;5035344;28;20389;-71
2022/03/10 12:39:12;;;;;;;24.85;16.30;;;13.50;97.00;;;;;;5033245;28;20469;-71
2022/03/10 12:41:39;;;;;;;26.23;16.45;;;13.50;96.60;;;;;;5034942;28;20124;-71
2022/03/10 12:44:07;;;;;;;25.92;16.42;;;13.20;96.00;;;;;;5035676;28;20045;-71
2022/03/10 12:46:35;;;;;;;22.52;15.18;;;13.40;71.40;;;;;;5052509;28;20044;-71
2022/03/10 12:49:28;;;;;;;28.05;17.30;;;13.80;91.80;;;;;;5034613;28;20497;-70
2022/03/10 12:51:58;;;;;;;27.70;17.88;;;;;;;;;;5051760;28;20049;-70
2022/03/10 12:54:25;;;;;;;23.13;16.23;;;13.70;75.40;;;;;;5033766;28;20049;-69
2022/03/10 12:56:56;;;;;;;25.35;16.10;;;14.10;98.70;;;;;;5034259;28;20075;-72
2022/03/10 12:59:30;;;;;;;25.20;16.70;;;13.70;99.60;;;;;;5033754;28;20098;-72
2022/03/10 13:02:11;;;;;;;24.10;15.35;;;13.80;96.70;;;;;;5034250;28;20174;-72
2022/03/10 13:04:49;;;;;;;24.23;15.70;;;13.80;70.50;;;;;;5035164;28;20071;-72
2022/03/10 13:07:15;;;;;;;27.15;15.93;;;;;;;;;;5033936;28;20037;-72
2022/03/10 13:09:42;;;;;;;28.08;17.88;;;13.60;99.90;;;;;;5052428;28;20123;-72
2022/03/10 13:12:08;;;;;;;25.67;15.73;;;13.80;99.90;;;;;;5052541;28;20420;-72
2022/03/10 13:14:40;;;;;;;23.67;16.00;;;13.80;97.80;;;;;;5034235;28;20166;-72
2022/03/10 13:17:06;;;;;;;29.52;18.08;;;13.90;97.80;;;;;;5035067;28;20049;-72
2022/03/10 13:19:37;;;;;;;23.98;16.35;;;14.00;89.00;;;;;;5052663;28;20037;-72
2022/03/10 13:22:08;;;;;;;30.42;17.08;;;14.10;99.70;;;;;;5051563;28;20083;-72
2022/03/10 13:24:46;;;;;;;24.85;15.50;;;14.10;77.50;;;;;;5034546;28;20037;-72
2022/03/10 13:27:19;;;;;;;22.95;15.38;;;14.00;79.60;;;;;;5033893;28;20112;-72
2022/03/10 13:29:50;;;;;;;25.40;17.02;;;;;;;;;;5033779;28;20049;-72
2022/03/10 13:32:21;;;;;;;23.33;15.70;;;14.30;79.20;;;;;;5052362;28;20405;-72
2022/03/10 13:34:48;;;;;;;26.80;16.55;;;;;;;;;;5034139;28;20049;-72
2022/03/10 13:37:14;;;;;;;24.42;16.30;;;;;;;;;;5033259;28;20045;-72
2022/03/10 13:39:44;;;;;;;27.08;17.65;;;14.30;87.90;;;;;;5051862;28;20084;-72
2022/03/10 13:42:12;;;;;;;21.83;15.35;;;14.30;90.00;;;;;;5017106;28;20087;-72
2022/03/10 13:44:37;;;;;;;20.98;15.18;;;14.40;90.30;;;;;;5052412;28;20078;-72
2022/03/10 13:47:08;;;;;;;26.92;17.17;;;13.90;99.90;;;;;;5017714;28;20041;-72